sensor_id;sensor_type;location;lat;lon;timestamp;P1;durP1;ratioP1;P2;durP2;ratioP2
59109;SDS011;44895;47.438;18.978;2023-05-24T00:01:57;8.05;;;4.45;;
59109;SDS011;44895;47.438;18.978;2023-05-24T00:05:01;12.80;;;5.07;;
59109;SDS011;44895;47.438;18.978;2023-05-24T00:08:06;8.77;;;4.22;;
59109;SDS011;44895;47.438;18.978;2023-05-24T00:11:10;8.55;;;4.72;;
59109;SDS011;44895;47.438;18.978;2023-05-24T00:14:14;10.68;;;4.45;;
59109;SDS011;44895;47.438;18.978;2023-05-24T00:17:18;9.98;;;4.53;;
59109;SDS011;44895;47.438;18.978;2023-05-24T00:20:22;9.38;;;4.45;;
59109;SDS011;44895;47.438;18.978;2023-05-24T00:23:26;9.70;;;5.65;;
59109;SDS011;44895;47.438;18.978;2023-05-24T00:26:30;8.90;;;4.88;;
59109;SDS011;44895;47.438;18.978;2023-05-24T00:29:34;9.23;;;4.93;;
59109;SDS011;44895;47.438;18.978;2023-05-24T00:32:38;16.67;;;5.63;;
59109;SDS011;44895;47.438;18.978;2023-05-24T00:35:42;10.45;;;5.22;;
59109;SDS011;44895;47.438;18.978;2023-05-24T00:38:46;9.52;;;4.78;;
59109;SDS011;44895;47.438;18.978;2023-05-24T00:41:52;9.77;;;5.65;;
59109;SDS011;44895;47.438;18.978;2023-05-24T00:44:56;10.38;;;4.82;;
59109;SDS011;44895;47.438;18.978;2023-05-24T00:48:00;11.15;;;5.32;;
59109;SDS011;44895;47.438;18.978;2023-05-24T00:51:05;8.98;;;5.80;;
59109;SDS011;44895;47.438;18.978;2023-05-24T00:54:09;8.57;;;4.53;;
59109;SDS011;44895;47.438;18.978;2023-05-24T00:57:16;12.97;;;5.37;;
59109;SDS011;44895;47.438;18.978;2023-05-24T01:00:21;8.13;;;5.10;;
59109;SDS011;44895;47.438;18.978;2023-05-24T01:03:27;9.32;;;6.10;;
59109;SDS011;44895;47.438;18.978;2023-05-24T01:06:37;9.82;;;4.82;;
59109;SDS011;44895;47.438;18.978;2023-05-24T01:16:54;9.20;;;5.28;;
59109;SDS011;44895;47.438;18.978;2023-05-24T01:20:06;8.93;;;5.20;;
59109;SDS011;44895;47.438;18.978;2023-05-24T01:23:27;10.47;;;5.17;;
59109;SDS011;44895;47.438;18.978;2023-05-24T01:26:41;11.68;;;5.30;;
59109;SDS011;44895;47.438;18.978;2023-05-24T01:30:03;11.70;;;5.15;;
59109;SDS011;44895;47.438;18.978;2023-05-24T01:33:07;10.82;;;5.57;;
59109;SDS011;44895;47.438;18.978;2023-05-24T01:36:11;15.20;;;6.78;;
59109;SDS011;44895;47.438;18.978;2023-05-24T01:39:16;13.23;;;6.13;;
59109;SDS011;44895;47.438;18.978;2023-05-24T01:49:28;16.83;;;7.60;;
59109;SDS011;44895;47.438;18.978;2023-05-24T01:52:37;10.30;;;6.60;;
59109;SDS011;44895;47.438;18.978;2023-05-24T01:55:42;9.77;;;7.03;;
59109;SDS011;44895;47.438;18.978;2023-05-24T01:58:47;12.30;;;7.40;;
59109;SDS011;44895;47.438;18.978;2023-05-24T02:01:55;9.98;;;5.97;;
59109;SDS011;44895;47.438;18.978;2023-05-24T02:05:00;12.43;;;7.63;;
59109;SDS011;44895;47.438;18.978;2023-05-24T02:08:04;11.63;;;6.90;;
59109;SDS011;44895;47.438;18.978;2023-05-24T02:11:08;11.63;;;7.53;;
59109;SDS011;44895;47.438;18.978;2023-05-24T02:14:12;14.55;;;8.40;;
59109;SDS011;44895;47.438;18.978;2023-05-24T02:17:16;12.00;;;6.88;;
59109;SDS011;44895;47.438;18.978;2023-05-24T02:20:21;13.15;;;9.15;;
59109;SDS011;44895;47.438;18.978;2023-05-24T02:23:24;13.40;;;7.53;;
59109;SDS011;44895;47.438;18.978;2023-05-24T02:26:30;12.70;;;9.15;;
59109;SDS011;44895;47.438;18.978;2023-05-24T02:29:33;13.77;;;9.48;;
59109;SDS011;44895;47.438;18.978;2023-05-24T02:32:38;13.00;;;8.77;;
59109;SDS011;44895;47.438;18.978;2023-05-24T02:35:42;13.10;;;8.73;;
59109;SDS011;44895;47.438;18.978;2023-05-24T02:38:46;11.93;;;7.80;;
59109;SDS011;44895;47.438;18.978;2023-05-24T02:41:50;14.23;;;7.53;;
59109;SDS011;44895;47.438;18.978;2023-05-24T02:44:54;14.13;;;7.90;;
59109;SDS011;44895;47.438;18.978;2023-05-24T02:47:59;16.48;;;6.72;;
59109;SDS011;44895;47.438;18.978;2023-05-24T02:51:03;12.60;;;6.43;;
59109;SDS011;44895;47.438;18.978;2023-05-24T02:54:08;10.10;;;5.78;;
59109;SDS011;44895;47.438;18.978;2023-05-24T02:57:12;11.88;;;7.20;;
59109;SDS011;44895;47.438;18.978;2023-05-24T03:00:19;10.60;;;6.43;;
59109;SDS011;44895;47.438;18.978;2023-05-24T03:03:24;12.13;;;7.10;;
59109;SDS011;44895;47.438;18.978;2023-05-24T03:06:28;11.95;;;7.03;;
59109;SDS011;44895;47.438;18.978;2023-05-24T03:09:33;10.27;;;6.25;;
59109;SDS011;44895;47.438;18.978;2023-05-24T03:12:37;9.70;;;6.03;;
59109;SDS011;44895;47.438;18.978;2023-05-24T03:15:41;9.95;;;5.93;;
59109;SDS011;44895;47.438;18.978;2023-05-24T03:18:45;11.13;;;6.35;;
59109;SDS011;44895;47.438;18.978;2023-05-24T03:21:49;9.23;;;6.03;;
59109;SDS011;44895;47.438;18.978;2023-05-24T03:24:54;11.50;;;5.93;;
59109;SDS011;44895;47.438;18.978;2023-05-24T03:27:58;10.02;;;6.00;;
59109;SDS011;44895;47.438;18.978;2023-05-24T03:31:03;9.25;;;5.80;;
59109;SDS011;44895;47.438;18.978;2023-05-24T03:34:07;11.60;;;6.00;;
59109;SDS011;44895;47.438;18.978;2023-05-24T03:37:12;9.95;;;5.90;;
59109;SDS011;44895;47.438;18.978;2023-05-24T03:40:18;12.38;;;6.68;;
59109;SDS011;44895;47.438;18.978;2023-05-24T03:43:32;13.90;;;7.03;;
59109;SDS011;44895;47.438;18.978;2023-05-24T03:46:39;12.18;;;8.05;;
59109;SDS011;44895;47.438;18.978;2023-05-24T03:49:43;9.90;;;6.95;;
59109;SDS011;44895;47.438;18.978;2023-05-24T03:52:47;14.88;;;7.18;;
59109;SDS011;44895;47.438;18.978;2023-05-24T03:55:52;14.75;;;7.78;;
59109;SDS011;44895;47.438;18.978;2023-05-24T03:58:56;11.20;;;7.30;;
59109;SDS011;44895;47.438;18.978;2023-05-24T04:02:03;16.47;;;9.07;;
59109;SDS011;44895;47.438;18.978;2023-05-24T04:05:07;11.50;;;8.20;;
59109;SDS011;44895;47.438;18.978;2023-05-24T04:08:15;11.43;;;6.70;;
59109;SDS011;44895;47.438;18.978;2023-05-24T04:11:19;12.95;;;7.40;;
59109;SDS011;44895;47.438;18.978;2023-05-24T04:14:25;14.00;;;8.35;;
59109;SDS011;44895;47.438;18.978;2023-05-24T04:17:29;14.77;;;8.63;;
59109;SDS011;44895;47.438;18.978;2023-05-24T04:20:37;12.50;;;7.97;;
59109;SDS011;44895;47.438;18.978;2023-05-24T04:23:41;12.52;;;8.15;;
59109;SDS011;44895;47.438;18.978;2023-05-24T04:26:45;13.52;;;9.05;;
59109;SDS011;44895;47.438;18.978;2023-05-24T04:29:50;13.10;;;8.73;;
59109;SDS011;44895;47.438;18.978;2023-05-24T04:32:56;17.40;;;9.25;;
59109;SDS011;44895;47.438;18.978;2023-05-24T04:36:00;12.85;;;8.80;;
59109;SDS011;44895;47.438;18.978;2023-05-24T04:39:04;15.20;;;10.27;;
59109;SDS011;44895;47.438;18.978;2023-05-24T04:42:08;14.13;;;10.07;;
59109;SDS011;44895;47.438;18.978;2023-05-24T04:45:13;13.40;;;8.65;;
59109;SDS011;44895;47.438;18.978;2023-05-24T04:48:18;17.42;;;9.77;;
59109;SDS011;44895;47.438;18.978;2023-05-24T04:51:23;13.13;;;9.68;;
59109;SDS011;44895;47.438;18.978;2023-05-24T04:54:27;16.30;;;9.98;;
59109;SDS011;44895;47.438;18.978;2023-05-24T04:57:31;12.48;;;9.93;;
59109;SDS011;44895;47.438;18.978;2023-05-24T05:00:35;15.80;;;9.65;;
59109;SDS011;44895;47.438;18.978;2023-05-24T05:03:39;13.02;;;9.15;;
59109;SDS011;44895;47.438;18.978;2023-05-24T05:06:43;22.35;;;11.13;;
59109;SDS011;44895;47.438;18.978;2023-05-24T05:09:47;13.52;;;9.82;;
59109;SDS011;44895;47.438;18.978;2023-05-24T05:12:51;16.48;;;10.85;;
59109;SDS011;44895;47.438;18.978;2023-05-24T05:15:56;14.07;;;10.00;;
59109;SDS011;44895;47.438;18.978;2023-05-24T05:19:00;15.20;;;9.93;;
59109;SDS011;44895;47.438;18.978;2023-05-24T05:22:07;14.57;;;11.20;;
59109;SDS011;44895;47.438;18.978;2023-05-24T05:25:11;13.50;;;9.85;;
59109;SDS011;44895;47.438;18.978;2023-05-24T05:28:15;14.32;;;9.80;;
59109;SDS011;44895;47.438;18.978;2023-05-24T05:31:20;13.45;;;8.23;;
59109;SDS011;44895;47.438;18.978;2023-05-24T05:34:24;10.30;;;7.88;;
59109;SDS011;44895;47.438;18.978;2023-05-24T05:37:28;12.32;;;8.68;;
59109;SDS011;44895;47.438;18.978;2023-05-24T05:40:33;11.55;;;8.70;;
59109;SDS011;44895;47.438;18.978;2023-05-24T05:43:38;12.40;;;7.40;;
59109;SDS011;44895;47.438;18.978;2023-05-24T05:46:42;11.57;;;8.05;;
59109;SDS011;44895;47.438;18.978;2023-05-24T05:49:46;10.68;;;7.20;;
59109;SDS011;44895;47.438;18.978;2023-05-24T05:52:50;11.23;;;8.43;;
